TimeCDT,TemperatureF,Dew PointF,Humidity,Sea Level PressureIn,VisibilityMPH,Wind Direction,Wind SpeedMPH,Gust SpeedMPH,PrecipitationIn,Events,Conditions,WindDirDegrees,DateUTC
12:15 AM,35.6,33.8,93,29.92,3.0,North,4.6,-,0.03,Rain,Light Rain,10,2012-10-11 05:15:00
12:35 AM,35.6,33.8,93,29.91,5.0,Calm,Calm,-,0.03,Rain,Rain,0,2012-10-11 05:35:00
1:15 AM,35.6,33.8,93,29.90,7.0,Calm,Calm,-,0.01,Rain,Light Rain,0,2012-10-11 06:15:00
1:55 AM,35.6,33.8,93,29.89,5.0,Calm,Calm,-,0.02,Rain,Light Rain,0,2012-10-11 06:55:00
2:15 AM,35.6,33.8,93,29.88,7.0,Calm,Calm,-,N/A,,Drizzle,0,2012-10-11 07:15:00
2:55 AM,35.6,33.8,93,29.89,7.0,Calm,Calm,-,N/A,Rain,Rain,0,2012-10-11 07:55:00
3:15 AM,35.6,33.8,93,29.89,7.0,Calm,Calm,-,N/A,,Drizzle,0,2012-10-11 08:15:00
3:35 AM,35.6,33.8,93,29.89,7.0,Calm,Calm,-,N/A,,Drizzle,0,2012-10-11 08:35:00
3:55 AM,35.6,33.8,93,29.89,7.0,Calm,Calm,-,N/A,,Drizzle,0,2012-10-11 08:55:00
4:15 AM,35.6,33.8,93,29.90,5.0,Calm,Calm,-,N/A,,Drizzle,0,2012-10-11 09:15:00
4:35 AM,35.6,33.8,93,29.91,7.0,Calm,Calm,-,N/A,,Drizzle,0,2012-10-11 09:35:00
4:55 AM,35.6,35.6,100,29.92,7.0,Calm,Calm,-,N/A,,Light Drizzle,0,2012-10-11 09:55:00
5:15 AM,35.6,35.6,100,29.93,10.0,Calm,Calm,-,N/A,,Overcast,0,2012-10-11 10:15:00
5:35 AM,37.4,33.8,87,29.93,10.0,Calm,Calm,-,N/A,,Overcast,0,2012-10-11 10:35:00
5:55 AM,35.6,33.8,93,29.94,10.0,Calm,Calm,-,N/A,,Mostly Cloudy,0,2012-10-11 10:55:00
6:15 AM,35.6,32.0,87,29.94,10.0,Calm,Calm,-,N/A,,Scattered Clouds,0,2012-10-11 11:15:00
6:35 AM,33.8,32.0,93,29.95,10.0,Calm,Calm,-,N/A,,Clear,0,2012-10-11 11:35:00
6:55 AM,35.6,32.0,87,29.96,10.0,WNW,8.1,-,N/A,,Mostly Cloudy,300,2012-10-11 11:55:00
7:15 AM,35.6,32.0,87,29.97,10.0,NW,9.2,-,N/A,,Scattered Clouds,310,2012-10-11 12:15:00
7:35 AM,33.8,32.0,93,29.97,10.0,WNW,9.2,-,N/A,,Clear,300,2012-10-11 12:35:00
7:55 AM,35.6,32.0,87,29.99,10.0,WNW,8.1,-,N/A,,Scattered Clouds,300,2012-10-11 12:55:00
8:15 AM,35.6,33.8,93,30.00,10.0,WNW,6.9,-,N/A,,Scattered Clouds,290,2012-10-11 13:15:00
8:35 AM,37.4,33.8,87,30.02,10.0,WNW,6.9,-,N/A,,Clear,290,2012-10-11 13:35:00
8:55 AM,37.4,33.8,87,30.02,10.0,NW,10.4,-,N/A,,Clear,310,2012-10-11 13:55:00
9:15 AM,37.4,32.0,81,30.03,10.0,WNW,10.4,-,N/A,,Clear,300,2012-10-11 14:15:00
9:35 AM,37.4,33.8,87,30.04,10.0,NW,8.1,-,N/A,,Clear,310,2012-10-11 14:35:00
9:55 AM,39.2,30.2,70,30.06,10.0,WNW,13.8,-,N/A,,Scattered Clouds,300,2012-10-11 14:55:00
10:15 AM,39.2,30.2,70,30.07,10.0,NW,13.8,18.4,N/A,,Mostly Cloudy,310,2012-10-11 15:15:00
10:35 AM,39.2,30.2,70,30.08,10.0,NW,15.0,21.9,N/A,,Mostly Cloudy,320,2012-10-11 15:35:00
10:55 AM,39.2,30.2,70,30.10,10.0,NW,12.7,21.9,N/A,,Mostly Cloudy,310,2012-10-11 15:55:00
11:15 AM,39.2,28.4,65,30.11,10.0,NNW,16.1,-,N/A,,Overcast,330,2012-10-11 16:15:00
11:35 AM,42.8,28.4,57,30.12,10.0,NW,15.0,27.6,N/A,,Scattered Clouds,310,2012-10-11 16:35:00
11:55 AM,42.8,28.4,57,30.13,10.0,NW,17.3,26.5,N/A,,Mostly Cloudy,310,2012-10-11 16:55:00
12:15 PM,42.8,26.6,53,30.13,10.0,NNW,16.1,-,N/A,,Scattered Clouds,340,2012-10-11 17:15:00
12:55 PM,42.8,28.4,57,30.13,10.0,NW,16.1,23.0,N/A,,Mostly Cloudy,320,2012-10-11 17:55:00
1:15 PM,42.8,26.6,53,30.13,10.0,NW,15.0,23.0,N/A,,Scattered Clouds,320,2012-10-11 18:15:00
1:35 PM,44.6,26.6,49,30.14,10.0,NW,13.8,19.6,N/A,,Mostly Cloudy,310,2012-10-11 18:35:00
1:55 PM,42.8,26.6,53,30.15,10.0,NW,12.7,23.0,N/A,,Mostly Cloudy,320,2012-10-11 18:55:00
2:15 PM,44.6,26.6,49,30.15,10.0,NW,17.3,23.0,N/A,,Mostly Cloudy,320,2012-10-11 19:15:00
2:35 PM,46.4,24.8,43,30.16,10.0,NNW,15.0,19.6,N/A,,Overcast,340,2012-10-11 19:35:00
2:55 PM,44.6,24.8,46,30.17,10.0,NW,13.8,21.9,N/A,,Mostly Cloudy,320,2012-10-11 19:55:00
3:15 PM,42.8,24.8,49,30.17,10.0,NNW,13.8,19.6,N/A,,Mostly Cloudy,330,2012-10-11 20:15:00
3:35 PM,44.6,23.0,43,30.18,10.0,NW,11.5,19.6,N/A,,Mostly Cloudy,310,2012-10-11 20:35:00
3:55 PM,42.8,23.0,46,30.18,10.0,NW,15.0,21.9,N/A,,Mostly Cloudy,310,2012-10-11 20:55:00
4:15 PM,42.8,23.0,46,30.18,10.0,NW,11.5,-,N/A,,Scattered Clouds,320,2012-10-11 21:15:00
4:35 PM,46.4,23.0,40,30.18,10.0,NW,13.8,19.6,N/A,,Scattered Clouds,310,2012-10-11 21:35:00
5:15 PM,42.8,21.2,42,30.20,10.0,WNW,16.1,21.9,N/A,,Scattered Clouds,300,2012-10-11 22:15:00
5:35 PM,44.6,21.2,39,30.20,10.0,NW,12.7,23.0,N/A,,Scattered Clouds,310,2012-10-11 22:35:00
5:55 PM,42.8,21.2,42,30.21,10.0,NW,17.3,-,N/A,,Scattered Clouds,320,2012-10-11 22:55:00
6:35 PM,39.2,21.2,49,30.23,10.0,NW,9.2,-,N/A,,Clear,310,2012-10-11 23:35:00
6:55 PM,35.6,21.2,56,30.24,10.0,NW,6.9,-,N/A,,Clear,310,2012-10-11 23:55:00
7:15 PM,37.4,23.0,56,30.25,10.0,NW,11.5,-,N/A,,Clear,320,2012-10-12 00:15:00
7:35 PM,37.4,21.2,52,30.26,10.0,NW,10.4,-,N/A,,Clear,320,2012-10-12 00:35:00
7:55 PM,37.4,21.2,52,30.27,10.0,NW,10.4,16.1,N/A,,Clear,310,2012-10-12 00:55:00
8:15 PM,35.6,21.2,56,30.28,10.0,NW,8.1,-,N/A,,Clear,310,2012-10-12 01:15:00
8:35 PM,35.6,21.2,56,30.28,10.0,NW,6.9,-,N/A,,Clear,310,2012-10-12 01:35:00
8:55 PM,33.8,21.2,60,30.29,10.0,West,5.8,-,N/A,,Clear,280,2012-10-12 01:55:00
9:15 PM,30.2,21.2,69,30.29,10.0,Calm,Calm,-,N/A,,Clear,0,2012-10-12 02:15:00
9:35 PM,30.2,21.2,69,30.30,10.0,Calm,Calm,-,N/A,,Clear,0,2012-10-12 02:35:00
9:55 PM,30.2,21.2,69,30.31,10.0,South,3.5,-,N/A,,Clear,170,2012-10-12 02:55:00
10:55 PM,28.4,21.2,74,30.33,10.0,SSW,3.5,-,N/A,,Clear,210,2012-10-12 03:55:00
11:15 PM,30.2,21.2,69,30.34,10.0,SSW,3.5,-,N/A,,Clear,210,2012-10-12 04:15:00
11:35 PM,30.2,21.2,69,30.34,10.0,SW,3.5,-,N/A,,Clear,220,2012-10-12 04:35:00
11:55 PM,30.2,21.2,69,30.34,10.0,WSW,3.5,-,N/A,,Clear,250,2012-10-12 04:55:00